sensor_id;sensor_type;location;lat;lon;timestamp;pressure;altitude;pressure_sealevel;temperature;humidity
49835;BME280;35729;52.090;13.162;2023-06-26T00:01:32;101012.41;;;19.99;74.14
49835;BME280;35729;52.090;13.162;2023-06-26T00:04:01;101005.59;;;19.94;74.26
49835;BME280;35729;52.090;13.162;2023-06-26T00:06:29;101003.13;;;19.91;74.36
49835;BME280;35729;52.090;13.162;2023-06-26T00:09:00;101009.66;;;19.85;74.33
49835;BME280;35729;52.090;13.162;2023-06-26T00:11:29;101009.00;;;19.80;74.66
49835;BME280;35729;52.090;13.162;2023-06-26T00:13:58;101006.63;;;19.75;74.82
49835;BME280;35729;52.090;13.162;2023-06-26T00:16:27;101001.56;;;19.70;74.68
49835;BME280;35729;52.090;13.162;2023-06-26T00:18:56;101000.97;;;19.65;74.98
49835;BME280;35729;52.090;13.162;2023-06-26T00:21:25;101002.94;;;19.62;75.60
49835;BME280;35729;52.090;13.162;2023-06-26T00:23:53;100997.84;;;19.57;75.78
49835;BME280;35729;52.090;13.162;2023-06-26T00:26:24;101000.78;;;19.52;75.60
49835;BME280;35729;52.090;13.162;2023-06-26T00:28:53;100992.19;;;19.47;75.86
49835;BME280;35729;52.090;13.162;2023-06-26T00:31:21;100989.78;;;19.43;75.86
49835;BME280;35729;52.090;13.162;2023-06-26T00:33:49;100991.84;;;19.37;76.09
49835;BME280;35729;52.090;13.162;2023-06-26T00:36:18;100992.19;;;19.31;76.67
49835;BME280;35729;52.090;13.162;2023-06-26T00:38:49;100984.44;;;19.27;76.83
49835;BME280;35729;52.090;13.162;2023-06-26T00:41:18;100994.38;;;19.23;76.70
49835;BME280;35729;52.090;13.162;2023-06-26T00:43:49;100992.84;;;19.19;76.83
49835;BME280;35729;52.090;13.162;2023-06-26T00:46:18;100993.94;;;19.15;76.69
49835;BME280;35729;52.090;13.162;2023-06-26T00:48:47;100987.94;;;19.11;76.94
49835;BME280;35729;52.090;13.162;2023-06-26T00:51:16;100995.22;;;19.08;77.20
49835;BME280;35729;52.090;13.162;2023-06-26T00:53:45;100986.53;;;19.04;77.02
49835;BME280;35729;52.090;13.162;2023-06-26T00:56:14;100986.72;;;19.01;76.74
49835;BME280;35729;52.090;13.162;2023-06-26T00:58:43;100988.69;;;18.97;76.66
49835;BME280;35729;52.090;13.162;2023-06-26T01:01:15;100981.81;;;18.93;77.05
49835;BME280;35729;52.090;13.162;2023-06-26T01:03:48;100987.28;;;18.90;76.98
49835;BME280;35729;52.090;13.162;2023-06-26T01:06:20;100990.06;;;18.87;77.01
49835;BME280;35729;52.090;13.162;2023-06-26T01:08:51;100977.03;;;18.82;76.89
49835;BME280;35729;52.090;13.162;2023-06-26T01:11:20;100976.22;;;18.80;77.02
49835;BME280;35729;52.090;13.162;2023-06-26T01:13:56;100970.28;;;18.75;77.33
49835;BME280;35729;52.090;13.162;2023-06-26T01:16:29;100972.19;;;18.73;77.19
49835;BME280;35729;52.090;13.162;2023-06-26T01:18:58;100970.47;;;18.72;77.23
49835;BME280;35729;52.090;13.162;2023-06-26T01:21:28;100969.78;;;18.68;77.30
49835;BME280;35729;52.090;13.162;2023-06-26T01:24:04;100967.28;;;18.65;77.39
49835;BME280;35729;52.090;13.162;2023-06-26T01:26:39;100969.94;;;18.65;77.40
49835;BME280;35729;52.090;13.162;2023-06-26T01:29:15;100967.44;;;18.62;77.32
49835;BME280;35729;52.090;13.162;2023-06-26T01:31:46;100965.72;;;18.61;77.41
49835;BME280;35729;52.090;13.162;2023-06-26T01:34:15;100967.59;;;18.59;77.41
49835;BME280;35729;52.090;13.162;2023-06-26T01:36:45;100953.53;;;18.57;76.83
49835;BME280;35729;52.090;13.162;2023-06-26T01:39:15;100954.47;;;18.56;77.05
49835;BME280;35729;52.090;13.162;2023-06-26T01:41:47;100951.03;;;18.54;77.37
49835;BME280;35729;52.090;13.162;2023-06-26T01:44:23;100947.50;;;18.53;77.16
49835;BME280;35729;52.090;13.162;2023-06-26T01:46:59;100949.31;;;18.53;77.21
49835;BME280;35729;52.090;13.162;2023-06-26T01:49:35;100949.41;;;18.51;77.20
49835;BME280;35729;52.090;13.162;2023-06-26T01:52:09;100939.72;;;18.50;77.18
49835;BME280;35729;52.090;13.162;2023-06-26T01:54:49;100944.16;;;18.50;77.03
49835;BME280;35729;52.090;13.162;2023-06-26T01:57:26;100941.56;;;18.48;77.49
49835;BME280;35729;52.090;13.162;2023-06-26T01:59:56;100938.06;;;18.48;76.91
49835;BME280;35729;52.090;13.162;2023-06-26T02:02:25;100937.19;;;18.47;77.20
49835;BME280;35729;52.090;13.162;2023-06-26T02:04:53;100939.16;;;18.44;77.43
49835;BME280;35729;52.090;13.162;2023-06-26T02:07:22;100944.47;;;18.44;77.43
49835;BME280;35729;52.090;13.162;2023-06-26T02:09:50;100935.72;;;18.42;77.25
49835;BME280;35729;52.090;13.162;2023-06-26T02:12:19;100938.53;;;18.38;77.29
49835;BME280;35729;52.090;13.162;2023-06-26T02:14:50;100932.47;;;18.36;77.81
49835;BME280;35729;52.090;13.162;2023-06-26T02:17:19;100927.28;;;18.33;77.53
49835;BME280;35729;52.090;13.162;2023-06-26T02:19:47;100928.22;;;18.32;77.89
49835;BME280;35729;52.090;13.162;2023-06-26T02:22:16;100931.97;;;18.28;78.14
49835;BME280;35729;52.090;13.162;2023-06-26T02:24:45;100933.00;;;18.26;78.24
49835;BME280;35729;52.090;13.162;2023-06-26T02:27:13;100934.84;;;18.23;78.04
49835;BME280;35729;52.090;13.162;2023-06-26T02:29:42;100938.53;;;18.21;78.23
49835;BME280;35729;52.090;13.162;2023-06-26T02:32:13;100934.19;;;18.20;78.52
49835;BME280;35729;52.090;13.162;2023-06-26T02:34:41;100933.38;;;18.18;78.29
49835;BME280;35729;52.090;13.162;2023-06-26T02:37:10;100933.47;;;18.16;78.67
49835;BME280;35729;52.090;13.162;2023-06-26T02:39:39;100931.75;;;18.15;78.25
49835;BME280;35729;52.090;13.162;2023-06-26T02:42:07;100930.13;;;18.13;78.57
49835;BME280;35729;52.090;13.162;2023-06-26T02:44:36;100926.66;;;18.11;78.88
49835;BME280;35729;52.090;13.162;2023-06-26T02:47:05;100926.75;;;18.09;78.80
49835;BME280;35729;52.090;13.162;2023-06-26T02:49:36;100919.78;;;18.06;78.72
49835;BME280;35729;52.090;13.162;2023-06-26T02:52:05;100926.13;;;18.04;78.69
49835;BME280;35729;52.090;13.162;2023-06-26T02:54:33;100928.84;;;18.02;79.03
49835;BME280;35729;52.090;13.162;2023-06-26T02:57:02;100919.31;;;17.98;79.15
49835;BME280;35729;52.090;13.162;2023-06-26T02:59:30;100921.28;;;17.95;79.29
49835;BME280;35729;52.090;13.162;2023-06-26T03:01:58;100921.31;;;17.93;79.43
49835;BME280;35729;52.090;13.162;2023-06-26T03:04:27;100917.88;;;17.91;79.39
49835;BME280;35729;52.090;13.162;2023-06-26T03:06:58;100914.44;;;17.89;79.42
49835;BME280;35729;52.090;13.162;2023-06-26T03:09:26;100911.94;;;17.86;79.61
49835;BME280;35729;52.090;13.162;2023-06-26T03:11:55;100908.50;;;17.84;79.67
49835;BME280;35729;52.090;13.162;2023-06-26T03:14:23;100907.69;;;17.82;79.79
49835;BME280;35729;52.090;13.162;2023-06-26T03:16:52;100903.41;;;17.79;80.15
49835;BME280;35729;52.090;13.162;2023-06-26T03:19:23;100903.50;;;17.78;80.01
49835;BME280;35729;52.090;13.162;2023-06-26T03:21:51;100907.16;;;17.75;80.10
49835;BME280;35729;52.090;13.162;2023-06-26T03:24:23;100903.66;;;17.74;80.37
49835;BME280;35729;52.090;13.162;2023-06-26T03:26:51;100901.00;;;17.74;80.08
49835;BME280;35729;52.090;13.162;2023-06-26T03:29:20;100902.03;;;17.72;80.57
49835;BME280;35729;52.090;13.162;2023-06-26T03:31:48;100898.50;;;17.71;80.65
49835;BME280;35729;52.090;13.162;2023-06-26T03:34:17;100896.75;;;17.70;80.84
49835;BME280;35729;52.090;13.162;2023-06-26T03:36:45;100900.38;;;17.69;80.68
49835;BME280;35729;52.090;13.162;2023-06-26T03:39:14;100894.28;;;17.67;80.78
49835;BME280;35729;52.090;13.162;2023-06-26T03:41:45;100894.28;;;17.67;80.76
49835;BME280;35729;52.090;13.162;2023-06-26T03:44:13;100888.97;;;17.67;80.66
49835;BME280;35729;52.090;13.162;2023-06-26T03:46:42;100883.56;;;17.69;80.97
49835;BME280;35729;52.090;13.162;2023-06-26T03:49:10;100880.09;;;17.68;80.95
49835;BME280;35729;52.090;13.162;2023-06-26T03:51:39;100890.69;;;17.68;80.63
49835;BME280;35729;52.090;13.162;2023-06-26T03:54:07;100887.13;;;17.69;81.01
49835;BME280;35729;52.090;13.162;2023-06-26T03:56:36;100881.81;;;17.69;80.68
49835;BME280;35729;52.090;13.162;2023-06-26T03:59:07;100895.84;;;17.71;81.04
49835;BME280;35729;52.090;13.162;2023-06-26T04:01:36;100882.56;;;17.71;80.86
49835;BME280;35729;52.090;13.162;2023-06-26T04:04:05;100891.25;;;17.75;80.57
49835;BME280;35729;52.090;13.162;2023-06-26T04:06:33;100884.16;;;17.75;80.58
49835;BME280;35729;52.090;13.162;2023-06-26T04:09:02;100890.22;;;17.78;80.39
49835;BME280;35729;52.090;13.162;2023-06-26T04:11:31;100885.72;;;17.80;80.52
49835;BME280;35729;52.090;13.162;2023-06-26T04:13:59;100881.16;;;17.82;80.51
49835;BME280;35729;52.090;13.162;2023-06-26T04:16:30;100888.19;;;17.83;80.42
49835;BME280;35729;52.090;13.162;2023-06-26T04:18:59;100880.16;;;17.84;80.31
49835;BME280;35729;52.090;13.162;2023-06-26T04:21:28;100874.78;;;17.86;80.26
49835;BME280;35729;52.090;13.162;2023-06-26T04:23:56;100879.09;;;17.88;80.02
49835;BME280;35729;52.090;13.162;2023-06-26T04:26:25;100876.34;;;17.90;79.84
49835;BME280;35729;52.090;13.162;2023-06-26T04:28:54;100867.47;;;17.91;80.13
49835;BME280;35729;52.090;13.162;2023-06-26T04:31:22;100873.50;;;17.95;79.76
49835;BME280;35729;52.090;13.162;2023-06-26T04:33:53;100875.19;;;17.96;79.63
49835;BME280;35729;52.090;13.162;2023-06-26T04:36:23;100872.41;;;17.99;80.00
49835;BME280;35729;52.090;13.162;2023-06-26T04:38:53;100877.53;;;18.02;79.36
49835;BME280;35729;52.090;13.162;2023-06-26T04:41:22;100868.56;;;18.04;79.48
49835;BME280;35729;52.090;13.162;2023-06-26T04:43:50;100872.84;;;18.07;79.29
49835;BME280;35729;52.090;13.162;2023-06-26T04:46:19;100870.91;;;18.11;79.19
49835;BME280;35729;52.090;13.162;2023-06-26T04:48:47;100873.41;;;18.14;79.52
49835;BME280;35729;52.090;13.162;2023-06-26T04:51:18;100872.31;;;18.18;78.98
49835;BME280;35729;52.090;13.162;2023-06-26T04:53:47;100874.75;;;18.22;79.31
49835;BME280;35729;52.090;13.162;2023-06-26T04:56:22;100869.19;;;18.27;79.02
49835;BME280;35729;52.090;13.162;2023-06-26T04:58:51;100865.44;;;18.31;78.69
49835;BME280;35729;52.090;13.162;2023-06-26T05:01:19;100862.47;;;18.37;78.81
49835;BME280;35729;52.090;13.162;2023-06-26T05:03:48;100868.31;;;18.44;78.46
49835;BME280;35729;52.090;13.162;2023-06-26T05:06:19;100859.22;;;18.48;78.41
49835;BME280;35729;52.090;13.162;2023-06-26T05:08:47;100859.84;;;18.53;78.68
49835;BME280;35729;52.090;13.162;2023-06-26T05:11:16;100859.41;;;18.61;77.93
49835;BME280;35729;52.090;13.162;2023-06-26T05:13:44;100857.31;;;18.68;77.88
49835;BME280;35729;52.090;13.162;2023-06-26T05:16:13;100862.22;;;18.76;77.97
49835;BME280;35729;52.090;13.162;2023-06-26T05:18:41;100861.78;;;18.83;77.68
49835;BME280;35729;52.090;13.162;2023-06-26T05:21:10;100859.59;;;18.92;77.57
49835;BME280;35729;52.090;13.162;2023-06-26T05:23:42;100849.31;;;19.01;77.54
49835;BME280;35729;52.090;13.162;2023-06-26T05:26:11;100848.78;;;19.11;77.09
49835;BME280;35729;52.090;13.162;2023-06-26T05:28:40;100848.28;;;19.20;77.26
49835;BME280;35729;52.090;13.162;2023-06-26T05:31:14;100843.38;;;19.28;76.80
49835;BME280;35729;52.090;13.162;2023-06-26T05:33:43;100840.22;;;19.37;76.15
49835;BME280;35729;52.090;13.162;2023-06-26T05:36:12;100837.00;;;19.47;76.28
49835;BME280;35729;52.090;13.162;2023-06-26T05:38:44;100838.28;;;19.56;75.70
49835;BME280;35729;52.090;13.162;2023-06-26T05:41:14;100841.38;;;19.64;75.90
49835;BME280;35729;52.090;13.162;2023-06-26T05:43:43;100829.31;;;19.73;75.36
49835;BME280;35729;52.090;13.162;2023-06-26T05:46:11;100827.06;;;19.81;75.04
49835;BME280;35729;52.090;13.162;2023-06-26T05:48:40;100824.75;;;19.91;74.67
49835;BME280;35729;52.090;13.162;2023-06-26T05:51:09;100824.19;;;20.00;74.32
49835;BME280;35729;52.090;13.162;2023-06-26T05:53:38;100814.78;;;20.09;74.30
49835;BME280;35729;52.090;13.162;2023-06-26T05:56:10;100816.88;;;20.18;74.00
49835;BME280;35729;52.090;13.162;2023-06-26T05:58:40;100812.72;;;20.28;73.25
49835;BME280;35729;52.090;13.162;2023-06-26T06:01:09;100816.53;;;20.39;72.72
49835;BME280;35729;52.090;13.162;2023-06-26T06:03:38;100813.28;;;20.48;72.47
49835;BME280;35729;52.090;13.162;2023-06-26T06:06:07;100813.56;;;20.58;71.81
49835;BME280;35729;52.090;13.162;2023-06-26T06:08:35;100808.50;;;20.67;71.05
49835;BME280;35729;52.090;13.162;2023-06-26T06:11:04;100808.78;;;20.77;71.14
49835;BME280;35729;52.090;13.162;2023-06-26T06:13:35;100810.91;;;20.87;70.45
49835;BME280;35729;52.090;13.162;2023-06-26T06:16:04;100804.97;;;20.96;70.54
49835;BME280;35729;52.090;13.162;2023-06-26T06:18:33;100811.50;;;21.05;69.98
49835;BME280;35729;52.090;13.162;2023-06-26T06:21:01;100811.78;;;21.14;69.21
49835;BME280;35729;52.090;13.162;2023-06-26T06:23:29;100805.81;;;21.24;68.88
49835;BME280;35729;52.090;13.162;2023-06-26T06:25:58;100814.09;;;21.34;67.67
49835;BME280;35729;52.090;13.162;2023-06-26T06:28:26;100810.78;;;21.43;67.17
49835;BME280;35729;52.090;13.162;2023-06-26T06:30:57;100803.88;;;21.53;67.44
49835;BME280;35729;52.090;13.162;2023-06-26T06:33:26;100808.66;;;21.62;66.84
49835;BME280;35729;52.090;13.162;2023-06-26T06:38:23;100800.97;;;21.84;65.95
49835;BME280;35729;52.090;13.162;2023-06-26T06:40:51;100806.56;;;21.93;65.62
49835;BME280;35729;52.090;13.162;2023-06-26T06:43:20;100798.88;;;22.02;65.40
49835;BME280;35729;52.090;13.162;2023-06-26T06:45:48;100798.22;;;22.11;65.19
49835;BME280;35729;52.090;13.162;2023-06-26T06:48:19;100800.25;;;22.20;65.06
49835;BME280;35729;52.090;13.162;2023-06-26T06:50:48;100794.28;;;22.29;65.00
49835;BME280;35729;52.090;13.162;2023-06-26T06:53:18;100791.94;;;22.38;64.94
49835;BME280;35729;52.090;13.162;2023-06-26T06:55:53;100797.38;;;22.49;64.26
49835;BME280;35729;52.090;13.162;2023-06-26T06:58:21;100798.53;;;22.58;64.28
49835;BME280;35729;52.090;13.162;2023-06-26T07:00:50;100792.53;;;22.67;63.44
49835;BME280;35729;52.090;13.162;2023-06-26T07:03:21;100791.88;;;22.76;63.38
49835;BME280;35729;52.090;13.162;2023-06-26T07:05:50;100787.66;;;22.85;63.24
49835;BME280;35729;52.090;13.162;2023-06-26T07:08:18;100790.63;;;22.93;62.97
49835;BME280;35729;52.090;13.162;2023-06-26T07:10:47;100790.06;;;23.01;63.02
49835;BME280;35729;52.090;13.162;2023-06-26T07:13:15;100790.13;;;23.13;62.17
49835;BME280;35729;52.090;13.162;2023-06-26T07:15:45;100789.59;;;23.20;61.97
49835;BME280;35729;52.090;13.162;2023-06-26T07:18:13;100789.88;;;23.29;61.54
49835;BME280;35729;52.090;13.162;2023-06-26T07:20:45;100783.94;;;23.36;60.56
49835;BME280;35729;52.090;13.162;2023-06-26T07:23:13;100790.53;;;23.43;60.54
49835;BME280;35729;52.090;13.162;2023-06-26T07:25:42;100788.13;;;23.52;59.85
49835;BME280;35729;52.090;13.162;2023-06-26T07:28:11;100776.13;;;23.57;59.46
49835;BME280;35729;52.090;13.162;2023-06-26T07:30:39;100786.09;;;23.67;59.14
49835;BME280;35729;52.090;13.162;2023-06-26T07:33:08;100780.16;;;23.74;59.08
49835;BME280;35729;52.090;13.162;2023-06-26T07:35:36;100775.19;;;23.81;59.02
49835;BME280;35729;52.090;13.162;2023-06-26T07:38:08;100773.72;;;23.88;58.87
49835;BME280;35729;52.090;13.162;2023-06-26T07:40:36;100768.69;;;23.97;58.44
49835;BME280;35729;52.090;13.162;2023-06-26T07:43:04;100766.38;;;24.03;57.78
49835;BME280;35729;52.090;13.162;2023-06-26T07:45:33;100764.06;;;24.10;57.99
49835;BME280;35729;52.090;13.162;2023-06-26T07:48:01;100761.63;;;24.18;57.56
49835;BME280;35729;52.090;13.162;2023-06-26T07:50:30;100763.81;;;24.24;57.04
49835;BME280;35729;52.090;13.162;2023-06-26T07:52:58;100760.41;;;24.34;56.77
49835;BME280;35729;52.090;13.162;2023-06-26T07:55:30;100763.34;;;24.42;56.44
49835;BME280;35729;52.090;13.162;2023-06-26T07:57:58;100764.28;;;24.52;55.99
49835;BME280;35729;52.090;13.162;2023-06-26T08:00:27;100752.94;;;24.60;55.61
49835;BME280;35729;52.090;13.162;2023-06-26T08:02:56;100750.53;;;24.68;55.59
49835;BME280;35729;52.090;13.162;2023-06-26T08:05:24;100750.66;;;24.78;54.66
49835;BME280;35729;52.090;13.162;2023-06-26T08:07:52;100741.22;;;24.84;54.36
49835;BME280;35729;52.090;13.162;2023-06-26T08:10:21;100743.03;;;24.95;53.85
49835;BME280;35729;52.090;13.162;2023-06-26T08:12:52;100736.16;;;25.02;53.10
49835;BME280;35729;52.090;13.162;2023-06-26T08:15:21;100743.47;;;25.11;52.86
49835;BME280;35729;52.090;13.162;2023-06-26T08:17:50;100740.28;;;25.17;51.92
49835;BME280;35729;52.090;13.162;2023-06-26T08:20:18;100736.19;;;25.23;51.75
49835;BME280;35729;52.090;13.162;2023-06-26T08:22:48;100739.22;;;25.30;51.65
49835;BME280;35729;52.090;13.162;2023-06-26T08:25:17;100736.91;;;25.36;51.11
49835;BME280;35729;52.090;13.162;2023-06-26T08:27:46;100736.41;;;25.43;50.30
49835;BME280;35729;52.090;13.162;2023-06-26T08:30:20;100734.88;;;25.50;50.08
49835;BME280;35729;52.090;13.162;2023-06-26T08:32:53;100735.31;;;25.55;50.22
49835;BME280;35729;52.090;13.162;2023-06-26T08:35:22;100738.34;;;25.62;49.65
49835;BME280;35729;52.090;13.162;2023-06-26T08:37:50;100733.16;;;25.70;49.37
49835;BME280;35729;52.090;13.162;2023-06-26T08:40:21;100725.56;;;25.75;49.13
49835;BME280;35729;52.090;13.162;2023-06-26T08:42:49;100738.47;;;25.81;48.81
49835;BME280;35729;52.090;13.162;2023-06-26T08:45:21;100731.72;;;25.87;48.84
49835;BME280;35729;52.090;13.162;2023-06-26T08:47:53;100719.56;;;25.93;48.95
49835;BME280;35729;52.090;13.162;2023-06-26T08:50:23;100719.88;;;25.99;47.79
49835;BME280;35729;52.090;13.162;2023-06-26T08:52:54;100719.13;;;26.09;48.18
49835;BME280;35729;52.090;13.162;2023-06-26T08:55:26;100724.78;;;26.15;47.19
49835;BME280;35729;52.090;13.162;2023-06-26T08:57:56;100720.44;;;26.24;47.47
49835;BME280;35729;52.090;13.162;2023-06-26T09:00:27;100721.47;;;26.33;46.97
49835;BME280;35729;52.090;13.162;2023-06-26T09:02:56;100715.25;;;26.42;46.87
49835;BME280;35729;52.090;13.162;2023-06-26T09:05:26;100708.34;;;26.49;46.62
49835;BME280;35729;52.090;13.162;2023-06-26T09:07:57;100711.19;;;26.58;46.74
49835;BME280;35729;52.090;13.162;2023-06-26T09:10:25;100713.31;;;26.64;46.28
49835;BME280;35729;52.090;13.162;2023-06-26T09:12:55;100718.13;;;26.70;45.94
49835;BME280;35729;52.090;13.162;2023-06-26T09:15:37;100706.84;;;26.76;45.79
49835;BME280;35729;52.090;13.162;2023-06-26T09:18:06;100709.41;;;26.88;45.45
49835;BME280;35729;52.090;13.162;2023-06-26T09:20:35;100710.41;;;26.96;44.92
49835;BME280;35729;52.090;13.162;2023-06-26T09:23:04;100710.56;;;27.05;44.18
49835;BME280;35729;52.090;13.162;2023-06-26T09:25:33;100713.69;;;27.10;44.28
49835;BME280;35729;52.090;13.162;2023-06-26T09:28:02;100704.31;;;27.14;42.91
49835;BME280;35729;52.090;13.162;2023-06-26T09:30:34;100714.81;;;27.17;42.32
49835;BME280;35729;52.090;13.162;2023-06-26T09:33:13;100700.22;;;27.20;40.51
49835;BME280;35729;52.090;13.162;2023-06-26T09:35:42;100698.22;;;27.22;41.75
49835;BME280;35729;52.090;13.162;2023-06-26T09:38:11;100698.94;;;27.24;41.72
49835;BME280;35729;52.090;13.162;2023-06-26T09:40:40;100692.25;;;27.28;42.43
49835;BME280;35729;52.090;13.162;2023-06-26T09:43:09;100688.28;;;27.32;42.00
49835;BME280;35729;52.090;13.162;2023-06-26T09:45:43;100690.41;;;27.38;41.87
49835;BME280;35729;52.090;13.162;2023-06-26T09:48:14;100684.47;;;27.44;41.92
49835;BME280;35729;52.090;13.162;2023-06-26T09:50:42;100686.88;;;27.47;41.92
49835;BME280;35729;52.090;13.162;2023-06-26T09:53:12;100674.66;;;27.53;41.63
49835;BME280;35729;52.090;13.162;2023-06-26T09:55:43;100673.25;;;27.59;41.68
49835;BME280;35729;52.090;13.162;2023-06-26T09:58:12;100679.72;;;27.66;41.77
49835;BME280;35729;52.090;13.162;2023-06-26T10:00:45;100671.06;;;27.72;41.40
49835;BME280;35729;52.090;13.162;2023-06-26T10:03:14;100667.06;;;27.76;41.29
49835;BME280;35729;52.090;13.162;2023-06-26T10:05:42;100664.78;;;27.82;40.61
49835;BME280;35729;52.090;13.162;2023-06-26T10:08:18;100663.19;;;27.89;40.56
49835;BME280;35729;52.090;13.162;2023-06-26T10:10:48;100666.28;;;27.94;40.37
49835;BME280;35729;52.090;13.162;2023-06-26T10:13:21;100650.81;;;27.96;40.09
49835;BME280;35729;52.090;13.162;2023-06-26T10:15:52;100660.59;;;27.97;39.88
49835;BME280;35729;52.090;13.162;2023-06-26T10:18:25;100661.00;;;28.02;40.45
49835;BME280;35729;52.090;13.162;2023-06-26T10:20:56;100650.81;;;28.06;40.24
49835;BME280;35729;52.090;13.162;2023-06-26T10:23:27;100642.94;;;28.12;40.40
49835;BME280;35729;52.090;13.162;2023-06-26T10:25:58;100652.16;;;28.20;39.96
49835;BME280;35729;52.090;13.162;2023-06-26T10:28:28;100637.03;;;28.27;39.84
49835;BME280;35729;52.090;13.162;2023-06-26T10:31:02;100637.84;;;28.37;39.51
49835;BME280;35729;52.090;13.162;2023-06-26T10:33:32;100628.28;;;28.43;39.58
49835;BME280;35729;52.090;13.162;2023-06-26T10:36:17;100629.91;;;28.54;39.37
49835;BME280;35729;52.090;13.162;2023-06-26T10:38:51;100627.44;;;28.60;39.32
49835;BME280;35729;52.090;13.162;2023-06-26T10:41:20;100624.88;;;28.69;39.49
49835;BME280;35729;52.090;13.162;2023-06-26T10:43:51;100625.75;;;28.77;39.31
49835;BME280;35729;52.090;13.162;2023-06-26T10:46:22;100626.53;;;28.88;39.26
49835;BME280;35729;52.090;13.162;2023-06-26T10:49:00;100610.56;;;28.95;39.57
49835;BME280;35729;52.090;13.162;2023-06-26T10:51:29;100614.00;;;29.05;39.42
49835;BME280;35729;52.090;13.162;2023-06-26T10:53:58;100605.63;;;29.16;38.91
49835;BME280;35729;52.090;13.162;2023-06-26T10:56:44;100609.81;;;29.29;38.82
49835;BME280;35729;52.090;13.162;2023-06-26T10:59:15;100603.44;;;29.38;38.46
49835;BME280;35729;52.090;13.162;2023-06-26T11:01:53;100597.94;;;29.48;38.38
49835;BME280;35729;52.090;13.162;2023-06-26T11:04:36;100603.75;;;29.61;38.19
49835;BME280;35729;52.090;13.162;2023-06-26T11:07:15;100611.75;;;29.79;37.35
49835;BME280;35729;52.090;13.162;2023-06-26T11:09:55;100605.94;;;29.92;37.41
49835;BME280;35729;52.090;13.162;2023-06-26T11:12:34;100598.34;;;30.04;37.00
49835;BME280;35729;52.090;13.162;2023-06-26T11:15:04;100593.50;;;30.16;37.25
49835;BME280;35729;52.090;13.162;2023-06-26T11:17:38;100594.19;;;30.26;37.61
49835;BME280;35729;52.090;13.162;2023-06-26T11:20:08;100587.97;;;30.42;37.53
49835;BME280;35729;52.090;13.162;2023-06-26T11:22:38;100580.72;;;30.59;37.24
49835;BME280;35729;52.090;13.162;2023-06-26T11:25:09;100582.75;;;30.74;36.97
49835;BME280;35729;52.090;13.162;2023-06-26T11:27:41;100580.72;;;30.84;36.60
49835;BME280;35729;52.090;13.162;2023-06-26T11:30:11;100582.75;;;30.90;36.36
49835;BME280;35729;52.090;13.162;2023-06-26T11:32:42;100577.13;;;31.00;35.86
49835;BME280;35729;52.090;13.162;2023-06-26T11:35:11;100573.25;;;31.11;35.90
49835;BME280;35729;52.090;13.162;2023-06-26T11:37:39;100574.94;;;31.20;34.93
49835;BME280;35729;52.090;13.162;2023-06-26T11:40:17;100571.53;;;31.26;34.09
49835;BME280;35729;52.090;13.162;2023-06-26T11:42:46;100568.63;;;31.36;34.83
49835;BME280;35729;52.090;13.162;2023-06-26T11:45:15;100570.47;;;31.44;34.15
49835;BME280;35729;52.090;13.162;2023-06-26T11:47:46;100562.81;;;31.47;33.60
49835;BME280;35729;52.090;13.162;2023-06-26T11:50:15;100549.94;;;31.49;33.91
49835;BME280;35729;52.090;13.162;2023-06-26T11:52:45;100553.94;;;31.62;33.92
49835;BME280;35729;52.090;13.162;2023-06-26T11:55:16;100556.75;;;31.85;33.73
49835;BME280;35729;52.090;13.162;2023-06-26T11:57:48;100537.78;;;32.08;32.93
49835;BME280;35729;52.090;13.162;2023-06-26T12:00:17;100540.22;;;32.26;33.09
49835;BME280;35729;52.090;13.162;2023-06-26T12:02:48;100532.53;;;32.38;33.13
49835;BME280;35729;52.090;13.162;2023-06-26T12:05:17;100534.31;;;32.46;32.59
49835;BME280;35729;52.090;13.162;2023-06-26T12:07:47;100520.84;;;32.53;32.71
49835;BME280;35729;52.090;13.162;2023-06-26T12:10:17;100535.09;;;32.55;32.65
49835;BME280;35729;52.090;13.162;2023-06-26T12:12:47;100526.09;;;32.54;32.65
49835;BME280;35729;52.090;13.162;2023-06-26T12:15:16;100513.66;;;32.60;32.56
49835;BME280;35729;52.090;13.162;2023-06-26T12:17:45;100511.72;;;32.69;32.40
49835;BME280;35729;52.090;13.162;2023-06-26T12:20:23;100511.13;;;32.81;31.76
49835;BME280;35729;52.090;13.162;2023-06-26T12:22:52;100519.94;;;32.99;31.62
49835;BME280;35729;52.090;13.162;2023-06-26T12:25:24;100500.63;;;33.08;31.02
49835;BME280;35729;52.090;13.162;2023-06-26T12:27:52;100499.78;;;33.23;30.99
49835;BME280;35729;52.090;13.162;2023-06-26T12:30:21;100497.09;;;33.38;30.80
49835;BME280;35729;52.090;13.162;2023-06-26T12:32:49;100489.75;;;33.53;31.01
49835;BME280;35729;52.090;13.162;2023-06-26T12:35:18;100493.53;;;33.74;30.34
49835;BME280;35729;52.090;13.162;2023-06-26T12:37:49;100484.53;;;33.88;29.83
49835;BME280;35729;52.090;13.162;2023-06-26T12:40:18;100487.97;;;33.97;30.25
49835;BME280;35729;52.090;13.162;2023-06-26T12:42:47;100487.63;;;34.07;29.93
49835;BME280;35729;52.090;13.162;2023-06-26T12:45:16;100481.66;;;34.18;29.81
49835;BME280;35729;52.090;13.162;2023-06-26T12:47:45;100482.81;;;34.31;29.33
49835;BME280;35729;52.090;13.162;2023-06-26T12:50:14;100464.72;;;34.45;29.35
49835;BME280;35729;52.090;13.162;2023-06-26T12:52:52;100475.13;;;34.63;28.71
49835;BME280;35729;52.090;13.162;2023-06-26T12:55:20;100474.19;;;34.77;28.83
49835;BME280;35729;52.090;13.162;2023-06-26T12:57:49;100474.91;;;34.86;28.50